Time;durP1;ratioP1;P1;durP2;ratioP2;P2;SDS_P1;SDS_P2;PMS_P1;PMS_P2;Temp;Humidity;BMP_temperature;BMP_pressure;BME280_temperature;BME280_humidity;BME280_pressure;Samples;Min_cycle;Max_cycle;Signal;HPM_P1;HPM_P2
2023/02/10 00:00:26;;;;;;;4.68;2.70;;;;;;;6.13;100.00;102305.13;2104086;28;20044;-82
2023/02/10 00:01:48;;;;;;;3.17;2.13;;;;;;;6.09;100.00;102306.69;2092209;28;20143;-82
2023/02/10 00:03:10;;;;;;;4.47;2.30;;;;;;;6.10;100.00;102302.34;2089943;28;20739;-82
2023/02/10 00:04:33;;;;;;;3.75;2.67;;;;;;;6.12;100.00;102298.97;2087326;28;20037;-82
2023/02/10 00:05:55;;;;;;;3.75;2.30;;;;;;;6.18;100.00;102295.78;2103629;28;20108;-82
2023/02/10 00:07:17;;;;;;;;;;;;;;;6.17;100.00;102294.03;2093059;28;20066;-82
2023/02/10 00:08:38;;;;;;;6.93;3.90;;;;;;;6.19;100.00;102282.78;2081658;28;20412;-82
2023/02/10 00:10:01;;;;;;;6.63;3.60;;;;;;;6.24;100.00;102286.56;2085900;28;20536;-83
2023/02/10 00:11:56;;;;;;;6.43;4.07;;;;;;;6.28;100.00;102290.28;2095658;28;20041;-82
2023/02/10 00:13:07;;;;;;;7.45;4.15;;;;;;;6.30;100.00;102297.41;2089838;28;20574;-82
2023/02/10 00:14:30;;;;;;;7.38;4.80;;;;;;;6.28;100.00;102285.94;2086540;28;20055;-83
2023/02/10 00:15:53;;;;;;;9.85;5.15;;;;;;;6.27;100.00;102283.22;2087198;28;20057;-82
2023/02/10 00:17:17;;;;;;;10.68;6.82;;;;;;;6.21;100.00;102286.41;2089087;28;20539;-83
2023/02/10 00:18:38;;;;;;;10.57;6.70;;;;;;;6.15;100.00;102286.06;2086355;28;20045;-83
2023/02/10 00:20:01;;;;;;;8.60;5.30;;;;;;;6.09;100.00;102292.66;2087033;28;20063;-83
2023/02/10 00:21:22;;;;;;;9.43;4.93;;;;;;;6.02;100.00;102290.50;2086750;28;20033;-83
2023/02/10 00:22:44;;;;;;;5.50;3.60;;;;;;;5.96;100.00;102286.72;2094418;28;20455;-82
2023/02/10 00:24:06;;;;;;;5.75;3.70;;;;;;;5.93;100.00;102281.28;2086374;28;20075;-80
2023/02/10 00:25:28;;;;;;;5.78;3.47;;;;;;;5.90;100.00;102288.06;2095476;28;20534;-83
2023/02/10 00:26:50;;;;;;;5.65;3.15;;;;;;;5.89;100.00;102287.16;2089590;28;20049;-83
2023/02/10 00:28:15;;;;;;;;;;;;;;;5.82;100.00;102284.06;2094367;28;20135;-82
2023/02/10 00:29:37;;;;;;;4.53;2.60;;;;;;;5.80;100.00;102289.19;2073355;28;19932;-83
2023/02/10 00:31:11;;;;;;;5.80;3.30;;;;;;;5.78;100.00;102284.66;2082077;28;20049;-83
2023/02/10 00:32:36;;;;;;;4.85;3.22;;;;;;;5.76;100.00;102273.22;2088375;28;20584;-83
2023/02/10 00:33:59;;;;;;;5.05;3.17;;;;;;;5.77;100.00;102275.94;2080377;28;20049;-82
2023/02/10 00:35:24;;;;;;;7.10;3.80;;;;;;;5.79;100.00;102286.47;2083815;28;20070;-82
2023/02/10 00:36:48;;;;;;;7.38;4.30;;;;;;;5.82;100.00;102286.66;2102836;28;20271;-82
2023/02/10 00:38:10;;;;;;;5.95;3.65;;;;;;;5.84;100.00;102279.81;2091680;28;20049;-82
2023/02/10 00:39:33;;;;;;;8.85;4.60;;;;;;;5.87;100.00;102282.59;2081312;28;20061;-82
2023/02/10 00:41:01;;;;;;;9.27;4.40;;;;;;;5.91;100.00;102281.97;2093811;28;20052;-83
2023/02/10 00:42:23;;;;;;;7.03;3.95;;;;;;;5.93;100.00;102272.50;2080103;28;20063;-82
2023/02/10 00:43:45;;;;;;;6.25;3.78;;;;;;;5.93;100.00;102283.00;2096791;28;20098;-82
2023/02/10 00:45:11;;;;;;;6.10;3.88;;;;;;;5.95;100.00;102276.13;2075336;28;20089;-82
2023/02/10 00:46:35;;;;;;;8.38;5.35;;;;;;;6.00;100.00;102282.53;2076824;28;20617;-82
2023/02/10 00:47:57;;;;;;;11.88;7.38;;;;;;;6.05;100.00;102275.84;2080896;28;20049;-83
2023/02/10 00:49:20;;;;;;;29.15;21.00;;;;;;;6.07;100.00;102271.59;2095059;28;20040;-82
2023/02/10 00:50:41;;;;;;;42.85;30.73;;;;;;;6.08;100.00;102273.41;2092040;28;20512;-83
2023/02/10 00:52:04;;;;;;;;;;;;;;;6.03;100.00;102271.34;2097862;28;20037;-82
2023/02/10 00:53:26;;;;;;;14.88;10.43;;;;;;;6.02;100.00;102274.78;2075672;28;19921;-82
2023/02/10 00:54:49;;;;;;;13.02;9.32;;;;;;;6.02;100.00;102270.44;2073687;28;20056;-82
2023/02/10 00:56:10;;;;;;;17.27;11.38;;;;;;;5.99;100.00;102270.25;2083691;28;20053;-82
2023/02/10 00:57:32;;;;;;;14.57;10.55;;;;;;;6.00;100.00;102267.72;2078363;28;20088;-82
2023/02/10 00:58:55;;;;;;;16.23;11.68;;;;;;;6.01;100.00;102263.38;2077750;28;20041;-82
2023/02/10 01:00:16;;;;;;;17.23;12.07;;;;;;;5.99;100.00;102270.25;2078163;28;20041;-83
2023/02/10 01:01:40;;;;;;;16.48;11.30;;;;;;;6.01;100.00;102271.25;2094945;28;20067;-82
2023/02/10 01:03:02;;;;;;;17.75;12.00;;;;;;;6.04;100.00;102265.28;2083651;28;20046;-83
2023/02/10 01:04:24;;;;;;;29.38;20.42;;;;;;;6.06;100.00;102271.50;2100738;28;20048;-80
2023/02/10 01:05:46;;;;;;;22.67;14.25;;;;;;;6.09;100.00;102274.31;2091202;28;20114;-82
2023/02/10 01:07:10;;;;;;;17.08;10.85;;;;;;;6.13;100.00;102264.09;2094825;28;20088;-82
2023/02/10 01:08:33;;;;;;;17.05;11.38;;;;;;;6.18;100.00;102264.34;2089087;28;20045;-81
2023/02/10 01:09:55;;;;;;;14.43;9.75;;;;;;;6.21;100.00;102262.81;2086912;28;20053;-81
2023/02/10 01:11:20;;;;;;;8.23;4.90;;;;;;;6.25;100.00;102259.53;2078811;28;20230;-83
2023/02/10 01:12:41;;;;;;;6.78;3.35;;;;;;;6.30;100.00;102257.19;2083529;28;20056;-81
2023/02/10 01:14:04;;;;;;;5.32;3.03;;;;;;;6.28;100.00;102253.56;2077117;28;20053;-81
2023/02/10 01:15:26;;;;;;;4.35;2.60;;;;;;;6.25;100.00;102254.28;2100832;28;20604;-82
2023/02/10 01:16:52;;;;;;;3.58;2.40;;;;;;;6.25;100.00;102249.03;2091695;28;20048;-82
2023/02/10 01:18:16;;;;;;;5.00;2.85;;;;;;;6.28;100.00;102245.72;2087057;28;20045;-81
2023/02/10 01:19:43;;;;;;;3.97;2.08;;;;;;;6.28;100.00;102248.34;2078669;28;20161;-82
2023/02/10 01:21:20;;;;;;;3.47;2.28;;;;;;;6.26;100.00;102245.63;2072489;28;20053;-82
2023/02/10 01:22:44;;;;;;;3.40;2.50;;;;;;;6.26;100.00;102236.84;2086823;28;20063;-82
2023/02/10 01:24:08;;;;;;;3.85;2.78;;;;;;;6.33;100.00;102236.38;2084127;28;20131;-82
2023/02/10 01:25:31;;;;;;;4.75;2.90;;;;;;;6.40;100.00;102239.44;2097336;28;20691;-82
2023/02/10 01:26:53;;;;;;;6.50;3.65;;;;;;;6.46;100.00;102241.50;2090675;28;20056;-83
2023/02/10 01:28:15;;;;;;;6.80;4.10;;;;;;;6.50;100.00;102243.44;2077753;28;20045;-82
2023/02/10 01:29:37;;;;;;;11.88;7.78;;;;;;;6.52;100.00;102239.19;2084973;28;20790;-82
2023/02/10 01:31:03;;;;;;;15.10;10.52;;;;;;;6.54;100.00;102250.69;2086369;28;20041;-82
2023/02/10 01:32:28;;;;;;;13.00;8.65;;;;;;;6.55;100.00;102246.34;2080008;28;20049;-83
2023/02/10 01:33:54;;;;;;;14.00;10.15;;;;;;;6.53;100.00;102242.72;2082746;28;20045;-81
2023/02/10 01:35:18;;;;;;;7.22;4.85;;;;;;;6.54;100.00;102234.06;2086559;28;20040;-82
2023/02/10 01:36:40;;;;;;;6.68;4.25;;;;;;;6.56;100.00;102240.28;2085423;28;20078;-82
2023/02/10 01:38:02;;;;;;;5.57;3.30;;;;;;;6.57;100.00;102234.19;2086224;28;20056;-82
2023/02/10 01:39:26;;;;;;;4.18;2.50;;;;;;;6.57;100.00;102232.47;2086218;28;20098;-82
2023/02/10 01:40:49;;;;;;;5.55;2.70;;;;;;;6.55;100.00;102235.88;2077182;28;20068;-80
2023/02/10 01:42:14;;;;;;;3.75;2.33;;;;;;;6.55;100.00;102228.00;2085978;28;20037;-82
2023/02/10 01:43:57;;;;;;;3.97;2.35;;;;;;;6.55;100.00;102231.53;2086514;28;20053;-82
2023/02/10 01:45:28;;;;;;;4.18;2.45;;;;;;;6.52;100.00;102233.06;2102793;28;20043;-83
2023/02/10 01:46:54;;;;;;;3.55;2.38;;;;;;;6.49;100.00;102231.19;2078263;28;20543;-82
2023/02/10 01:48:25;;;;;;;2.88;2.15;;;;;;;6.48;100.00;102238.97;2085778;28;20147;-82
2023/02/10 01:49:49;;;;;;;4.55;2.33;;;;;;;6.44;100.00;102239.59;2097253;28;20067;-81
2023/02/10 01:51:12;;;;;;;5.25;2.20;;;;;;;6.41;100.00;102227.22;2089627;28;20059;-82
2023/02/10 01:52:34;;;;;;;4.30;2.88;;;;;;;6.38;100.00;102230.56;2086289;28;20056;-82
2023/02/10 01:54:00;;;;;;;2.90;2.30;;;;;;;6.38;100.00;102230.56;2077042;28;20053;-82
2023/02/10 01:55:25;;;;;;;6.93;4.00;;;;;;;6.40;100.00;102230.66;2077482;28;20564;-81
2023/02/10 01:56:49;;;;;;;4.78;3.30;;;;;;;6.45;100.00;102230.91;2082865;28;20065;-81
2023/02/10 01:58:13;;;;;;;5.47;3.28;;;;;;;6.46;100.00;102237.97;2078078;28;20065;-82
2023/02/10 01:59:38;;;;;;;9.13;5.13;;;;;;;6.45;100.00;102236.16;2077732;28;20055;-82
2023/02/10 02:01:02;;;;;;;10.85;7.35;;;;;;;6.40;100.00;102231.56;2077351;28;20685;-82
2023/02/10 02:02:26;;;;;;;7.60;4.57;;;;;;;6.34;100.00;102230.31;2075832;28;20084;-82
2023/02/10 02:03:51;;;;;;;5.57;3.10;;;;;;;6.27;100.00;102225.53;2097890;28;20458;-82
2023/02/10 02:05:42;;;;;;;5.88;3.35;;;;;;;6.18;100.00;102230.25;2082162;28;20057;-82
2023/02/10 02:07:04;;;;;;;8.15;3.72;;;;;;;6.15;100.00;102228.38;2075371;28;20790;-82
2023/02/10 02:08:28;;;;;;;;;;;;;;;6.10;100.00;102229.84;2086870;28;20125;-82
2023/02/10 02:09:52;;;;;;;5.70;2.95;;;;;;;6.13;100.00;102230.00;2086682;28;20391;-82
2023/02/10 02:11:23;;;;;;;4.20;2.35;;;;;;;6.17;100.00;102228.47;2077143;28;20049;-82
2023/02/10 02:12:55;;;;;;;5.57;2.97;;;;;;;6.16;100.00;102232.81;2076591;28;20071;-82
2023/02/10 02:14:32;;;;;;;4.88;2.78;;;;;;;6.13;100.00;102229.09;2087083;28;20485;-82
2023/02/10 02:16:02;;;;;;;4.88;2.60;;;;;;;6.11;100.00;102223.75;2079599;28;20390;-82
2023/02/10 02:17:34;;;;;;;4.95;2.72;;;;;;;6.12;100.00;102228.19;2094927;28;20076;-82
2023/02/10 02:19:08;;;;;;;3.17;2.10;;;;;;;6.08;100.00;102228.84;2080122;28;20046;-82
2023/02/10 02:21:12;;;;;;;3.95;2.53;;;;;;;6.07;100.00;102228.75;2095977;28;20079;-82
2023/02/10 02:23:02;;;;;;;4.13;2.30;;;;;;;6.06;100.00;102225.22;2103762;28;20104;-82
2023/02/10 02:25:03;;;;;;;3.40;2.00;;;;;;;6.06;100.00;102227.84;2088152;28;20029;-82
2023/02/10 02:26:42;;;;;;;4.47;2.33;;;;;;;6.06;100.00;102227.84;2088850;28;20041;-82
2023/02/10 02:28:37;;;;;;;7.85;4.88;;;;;;;6.08;100.00;102233.19;2096505;28;20565;-82
2023/02/10 02:30:47;;;;;;;17.73;14.52;;;;;;;6.09;100.00;102224.50;2080384;28;20061;-82
2023/02/10 02:32:15;;;;;;;11.45;7.07;;;;;;;6.16;100.00;102226.66;2074808;28;20042;-82
2023/02/10 02:33:43;;;;;;;13.00;9.90;;;;;;;6.23;100.00;102224.47;2085804;28;20087;-82
2023/02/10 02:35:11;;;;;;;14.88;9.45;;;;;;;6.29;100.00;102226.53;2086212;28;20039;-82
2023/02/10 02:36:39;;;;;;;10.07;7.07;;;;;;;6.35;100.00;102224.25;2086597;28;20556;-82
2023/02/10 02:38:03;;;;;;;5.75;3.35;;;;;;;6.39;100.00;102226.22;2085885;28;20045;-82
2023/02/10 02:39:26;;;;;;;5.53;2.50;;;;;;;6.43;100.00;102232.56;2077505;28;20046;-82
2023/02/10 02:40:51;;;;;;;4.70;2.95;;;;;;;6.44;100.00;102230.00;2083925;28;20053;-82
2023/02/10 02:42:19;;;;;;;3.10;1.92;;;;;;;6.45;100.00;102218.69;2085546;28;20136;-81
2023/02/10 02:43:42;;;;;;;3.40;1.98;;;;;;;6.49;100.00;102222.41;2080416;28;20037;-82
2023/02/10 02:45:10;;;;;;;5.57;3.03;;;;;;;6.53;100.00;102217.41;2080288;28;20456;-81
2023/02/10 02:46:44;;;;;;;31.77;14.98;;;;;;;6.57;100.00;102216.75;2084671;28;20045;-82
2023/02/10 02:48:38;;;;;;;7.78;3.75;;;;;;;6.66;100.00;102218.97;2080456;28;20159;-82
2023/02/10 02:50:16;;;;;;;6.07;3.30;;;;;;;6.74;100.00;102225.56;2088760;28;20564;-82
2023/02/10 02:51:57;;;;;;;7.82;5.55;;;;;;;6.77;100.00;102215.22;2080199;28;20119;-82
2023/02/10 02:53:28;;;;;;;11.40;7.72;;;;;;;6.82;100.00;102219.00;2096470;28;20040;-82
2023/02/10 02:55:01;;;;;;;15.13;11.15;;;;;;;6.85;100.00;102215.63;2081051;28;20069;-81
2023/02/10 02:56:34;;;;;;;15.18;9.88;;;;;;;6.86;100.00;102220.97;2083748;28;20041;-81
2023/02/10 02:58:03;;;;;;;14.90;10.65;;;;;;;6.85;100.00;102219.16;2078949;28;20061;-81
2023/02/10 02:59:37;;;;;;;27.80;20.30;;;;;;;6.87;100.00;102214.00;2084644;28;20571;-82
2023/02/10 03:01:06;;;;;;;35.30;26.77;;;;;;;6.89;100.00;102221.16;2079175;28;20076;-81
2023/02/10 03:02:29;;;;;;;24.13;16.60;;;;;;;6.91;100.00;102215.94;2094045;28;20067;-82
2023/02/10 03:03:56;;;;;;;31.58;24.67;;;;;;;6.90;100.00;102212.41;2088484;28;20060;-82
2023/02/10 03:05:20;;;;;;;32.25;24.30;;;;;;;6.93;100.00;102217.84;2094498;28;20563;-82
2023/02/10 03:06:43;;;;;;;23.48;17.15;;;;;;;6.95;100.00;102210.97;2080547;28;20103;-81
2023/02/10 03:08:05;;;;;;;29.10;20.30;;;;;;;7.00;100.00;102211.22;2077158;28;20061;-82
2023/02/10 03:09:28;;;;;;;11.77;8.05;;;;;;;7.00;100.00;102212.09;2093910;28;20059;-81
2023/02/10 03:10:51;;;;;;;9.88;5.85;;;;;;;6.98;100.00;102215.47;2080405;28;20049;-82
2023/02/10 03:12:16;;;;;;;10.70;7.38;;;;;;;6.95;100.00;102213.59;2091825;28;20040;-82
2023/02/10 03:13:39;;;;;;;6.00;2.95;;;;;;;6.92;100.00;102216.03;2088420;28;20052;-82
2023/02/10 03:15:03;;;;;;;4.57;2.50;;;;;;;6.91;100.00;102221.19;2085751;28;20470;-82
2023/02/10 03:16:26;;;;;;;3.70;2.03;;;;;;;6.90;100.00;102214.13;2077821;28;20038;-83
2023/02/10 03:17:48;;;;;;;3.05;2.00;;;;;;;6.90;100.00;102216.75;2076046;28;20120;-82
2023/02/10 03:19:17;;;;;;;4.10;1.90;;;;;;;6.88;100.00;102216.72;2087132;28;20556;-82
2023/02/10 03:20:40;;;;;;;3.53;2.40;;;;;;;6.91;100.00;102203.72;2088430;28;20053;-81
2023/02/10 03:22:04;;;;;;;4.95;2.20;;;;;;;6.95;100.00;102210.06;2077616;28;20056;-81
2023/02/10 03:23:26;;;;;;;6.10;3.60;;;;;;;7.03;100.00;102211.34;2073000;28;20056;-81
2023/02/10 03:24:51;;;;;;;6.13;3.58;;;;;;;7.09;100.00;102214.28;2084882;28;20452;-81
2023/02/10 03:26:18;;;;;;;4.97;3.38;;;;;;;7.14;100.00;102211.13;2079684;28;20046;-80
2023/02/10 03:27:41;;;;;;;4.15;2.50;;;;;;;7.16;100.00;102209.44;2084423;28;20556;-80
2023/02/10 03:29:06;;;;;;;4.15;2.83;;;;;;;7.17;100.00;102210.34;2080898;28;20060;-81
2023/02/10 03:30:29;;;;;;;3.80;1.98;;;;;;;7.15;100.00;102206.78;2087432;28;20106;-81
2023/02/10 03:31:53;;;;;;;;;;;;;;;7.11;100.00;102212.66;2087943;28;20122;-82
2023/02/10 03:33:17;;;;;;;3.28;2.05;;;;;;;7.10;100.00;102211.75;2081017;28;19925;-82
2023/02/10 03:34:43;;;;;;;3.90;1.70;;;;;;;7.11;100.00;102207.41;2101291;28;20435;-81
2023/02/10 03:36:06;;;;;;;5.07;2.45;;;;;;;7.11;100.00;102210.03;2094481;28;20127;-82
2023/02/10 03:37:33;;;;;;;7.93;4.55;;;;;;;7.13;100.00;102214.56;2086806;28;20098;-82
2023/02/10 03:38:57;;;;;;;5.43;2.20;;;;;;;7.16;100.00;102190.16;2086278;28;20068;-81
2023/02/10 03:40:19;;;;;;;4.78;2.42;;;;;;;7.26;100.00;102197.72;2079900;28;20069;-83
2023/02/10 03:41:41;;;;;;;6.20;2.90;;;;;;;7.35;100.00;102195.53;2087249;28;20079;-81
2023/02/10 03:43:03;;;;;;;8.45;4.13;;;;;;;7.42;100.00;102202.03;2078901;28;20065;-82
2023/02/10 03:44:25;;;;;;;;;;;;;;;7.42;100.00;102202.94;2092213;28;20041;-81
2023/02/10 03:45:48;;;;;;;10.15;8.10;;;;;;;7.44;100.00;102208.25;2089305;28;19980;-82
2023/02/10 03:47:12;;;;;;;7.28;5.25;;;;;;;7.47;100.00;102206.72;2086266;28;20049;-82
2023/02/10 03:48:34;;;;;;;5.85;4.20;;;;;;;7.49;100.00;102212.03;2079542;28;20073;-81
2023/02/10 03:50:00;;;;;;;4.47;2.45;;;;;;;7.49;100.00;102209.41;2097940;28;20170;-82
2023/02/10 03:51:22;;;;;;;6.05;2.70;;;;;;;7.51;100.00;102218.28;2091421;28;20463;-81
2023/02/10 03:52:45;;;;;;;4.30;2.28;;;;;;;7.49;100.00;102201.50;2100003;28;20040;-82
2023/02/10 03:54:08;;;;;;;3.78;2.17;;;;;;;7.48;100.00;102210.25;2083703;28;20057;-82
2023/02/10 03:55:32;;;;;;;2.90;1.83;;;;;;;7.45;100.00;102205.72;2087000;28;20111;-82
2023/02/10 03:56:55;;;;;;;3.75;2.00;;;;;;;7.44;100.00;102214.41;2102126;28;20040;-81
2023/02/10 03:58:18;;;;;;;5.05;2.92;;;;;;;7.44;100.00;102213.53;2090807;28;20126;-82
2023/02/10 03:59:40;;;;;;;5.20;3.15;;;;;;;7.46;100.00;102223.28;2085090;28;20052;-82
2023/02/10 04:01:10;;;;;;;7.00;3.25;;;;;;;7.49;100.00;102217.28;2087052;28;20041;-81
2023/02/10 04:02:33;;;;;;;3.80;2.50;;;;;;;7.52;100.00;102218.34;2087415;28;20049;-82
2023/02/10 04:03:54;;;;;;;4.50;2.50;;;;;;;7.54;100.00;102219.34;2089192;28;20033;-83
2023/02/10 04:05:18;;;;;;;5.70;2.55;;;;;;;7.56;100.00;102225.56;2078394;28;20424;-82
2023/02/10 04:06:40;;;;;;;4.57;3.35;;;;;;;7.58;100.00;102223.91;2083920;28;20061;-82
2023/02/10 04:08:03;;;;;;;5.63;3.55;;;;;;;7.60;100.00;102224.00;2084655;28;20049;-81
2023/02/10 04:09:25;;;;;;;4.40;2.50;;;;;;;7.60;100.00;102217.03;2095462;28;20044;-82
2023/02/10 04:10:47;;;;;;;5.15;3.08;;;;;;;7.63;100.00;102225.88;2083771;28;20057;-82
2023/02/10 04:12:09;;;;;;;5.78;3.97;;;;;;;7.65;100.00;102222.50;2088548;28;20564;-81
2023/02/10 04:13:31;;;;;;;8.63;5.35;;;;;;;7.66;100.00;102226.94;2081669;28;20042;-80
2023/02/10 04:14:53;;;;;;;8.77;5.85;;;;;;;7.68;100.00;102222.66;2085839;28;20052;-81
2023/02/10 04:16:19;;;;;;;8.43;5.10;;;;;;;7.70;100.00;102227.97;2100964;28;20102;-81
2023/02/10 04:17:40;;;;;;;8.10;5.38;;;;;;;7.70;100.00;102223.63;2091864;28;20396;-81
2023/02/10 04:19:04;;;;;;;12.15;6.90;;;;;;;7.73;100.00;102225.53;2096140;28;20082;-81
2023/02/10 04:20:27;;;;;;;10.10;6.32;;;;;;;7.74;100.00;102225.63;2084775;28;20070;-79
2023/02/10 04:21:49;;;;;;;7.90;5.28;;;;;;;7.74;100.00;102222.97;2087218;28;20053;-80
2023/02/10 04:23:11;;;;;;;10.20;6.00;;;;;;;7.72;100.00;102229.88;2083927;28;20439;-80
2023/02/10 04:24:33;;;;;;;10.48;6.47;;;;;;;7.69;100.00;102227.09;2086040;28;20048;-82
2023/02/10 04:25:54;;;;;;;14.23;10.77;;;;;;;7.65;100.00;102230.38;2087106;28;20103;-81
2023/02/10 04:27:17;;;;;;;8.98;5.38;;;;;;;7.63;100.00;102232.03;2085856;28;20148;-81
2023/02/10 04:28:38;;;;;;;11.98;6.05;;;;;;;7.64;100.00;102225.94;2086586;28;20037;-81
2023/02/10 04:30:00;;;;;;;11.02;6.70;;;;;;;7.66;100.00;102232.19;2095146;28;20520;-82
2023/02/10 04:31:23;;;;;;;11.32;6.15;;;;;;;7.68;100.00;102235.78;2094880;28;20040;-82
2023/02/10 04:32:46;;;;;;;8.57;5.43;;;;;;;7.69;100.00;102240.22;2089066;28;20109;-82
2023/02/10 04:34:08;;;;;;;9.00;5.00;;;;;;;7.72;100.00;102237.75;2086843;28;20060;-81
2023/02/10 04:35:36;;;;;;;5.53;3.15;;;;;;;7.74;100.00;102230.88;2088967;28;20053;-82
2023/02/10 04:37:00;;;;;;;5.70;2.92;;;;;;;7.73;100.00;102236.94;2090678;28;20094;-81
2023/02/10 04:38:24;;;;;;;4.40;2.78;;;;;;;7.72;100.00;102244.75;2087106;28;20449;-81
2023/02/10 04:39:48;;;;;;;5.90;3.30;;;;;;;7.71;100.00;102245.56;2102636;28;20040;-81
2023/02/10 04:41:12;;;;;;;4.53;2.30;;;;;;;7.72;100.00;102248.28;2075360;28;20132;-81
2023/02/10 04:42:35;;;;;;;4.55;2.78;;;;;;;7.75;100.00;102248.41;2082670;28;20188;-81
2023/02/10 04:44:03;;;;;;;6.50;3.88;;;;;;;7.76;100.00;102250.22;2086379;28;20404;-82
2023/02/10 04:45:25;;;;;;;6.13;3.90;;;;;;;7.79;100.00;102242.50;2103585;28;20474;-82
2023/02/10 04:46:49;;;;;;;8.25;4.78;;;;;;;7.81;100.00;102248.72;2083808;28;20045;-81
2023/02/10 04:48:13;;;;;;;11.63;6.32;;;;;;;7.84;100.00;102255.88;2085914;28;20462;-83
2023/02/10 04:49:36;;;;;;;23.80;15.30;;;;;;;7.84;100.00;102255.88;2103732;28;20178;-81
2023/02/10 04:50:58;;;;;;;44.30;30.45;;;;;;;7.82;100.00;102254.88;2091887;28;20045;-82
2023/02/10 04:52:21;;;;;;;40.63;25.10;;;;;;;7.79;100.00;102258.28;2094892;28;20048;-81
2023/02/10 04:53:44;;;;;;;25.33;16.75;;;;;;;7.76;100.00;102257.19;2089502;28;20048;-80
2023/02/10 04:55:07;;;;;;;29.55;19.83;;;;;;;7.73;100.00;102260.59;2102271;28;20059;-81
2023/02/10 04:56:29;;;;;;;31.63;22.45;;;;;;;7.73;100.00;102267.59;2083546;28;20033;-81
2023/02/10 04:57:51;;;;;;;;;;;;;;;7.66;100.00;102258.47;2086832;28;20111;-80
2023/02/10 04:59:12;;;;;;;36.97;26.05;;;;;;;7.66;100.00;102263.75;2094948;28;19925;-81
2023/02/10 05:00:35;;;;;;;22.02;15.70;;;;;;;7.67;100.00;102260.28;2095188;28;20051;-80
2023/02/10 05:02:00;;;;;;;18.75;11.82;;;;;;;7.67;100.00;102265.53;2089024;28;20045;-82
2023/02/10 05:03:26;;;;;;;14.75;9.38;;;;;;;7.66;100.00;102257.56;2089176;28;20536;-83
2023/02/10 05:04:49;;;;;;;17.90;11.43;;;;;;;7.65;100.00;102264.56;2103226;28;20048;-81
2023/02/10 05:06:15;;;;;;;14.05;8.32;;;;;;;7.70;100.00;102276.19;2091657;28;20049;-81
2023/02/10 05:07:37;;;;;;;11.23;5.05;;;;;;;7.72;100.00;102271.94;2086906;28;20052;-81
2023/02/10 05:09:00;;;;;;;16.50;11.18;;;;;;;7.77;100.00;102264.28;2102925;28;20516;-81
2023/02/10 05:10:22;;;;;;;16.73;10.35;;;;;;;7.81;100.00;102271.50;2091660;28;20534;-80
2023/02/10 05:11:44;;;;;;;11.38;6.22;;;;;;;7.83;100.00;102282.97;2086399;28;20505;-80
2023/02/10 05:13:07;;;;;;;24.38;15.98;;;;;;;7.87;100.00;102279.72;2086065;28;20051;-80
2023/02/10 05:14:30;;;;;;;23.60;16.38;;;;;;;7.90;100.00;102280.75;2084570;28;20076;-81
2023/02/10 05:15:52;;;;;;;26.23;18.15;;;;;;;7.93;100.00;102283.56;2085810;28;20493;-80
2023/02/10 05:17:16;;;;;;;24.80;15.45;;;;;;;7.95;100.00;102281.88;2101963;28;20060;-80
2023/02/10 05:18:39;;;;;;;20.85;13.55;;;;;;;7.94;100.00;102287.97;2091412;28;20516;-81
2023/02/10 05:20:01;;;;;;;23.75;14.18;;;;;;;7.96;100.00;102290.66;2085481;28;20059;-81
2023/02/10 05:21:24;;;;;;;9.57;5.43;;;;;;;7.96;100.00;102290.66;2077609;28;20045;-81
2023/02/10 05:22:46;;;;;;;10.18;5.80;;;;;;;7.94;100.00;102290.59;2079444;28;20536;-82
2023/02/10 05:24:07;;;;;;;8.65;4.30;;;;;;;7.91;100.00;102290.44;2085754;28;20037;-81
2023/02/10 05:25:30;;;;;;;6.18;3.15;;;;;;;7.91;100.00;102286.91;2085989;28;20055;-82
2023/02/10 05:26:51;;;;;;;5.45;3.50;;;;;;;7.89;100.00;102289.47;2085710;28;20426;-82
2023/02/10 05:28:13;;;;;;;9.43;5.43;;;;;;;7.87;100.00;102288.50;2085714;28;20049;-82
2023/02/10 05:29:36;;;;;;;18.10;11.00;;;;;;;7.87;100.00;102291.13;2085617;28;20429;-82
2023/02/10 05:30:59;;;;;;;28.85;19.33;;;;;;;7.88;100.00;102298.16;2088955;28;20048;-82
2023/02/10 05:32:20;;;;;;;32.42;22.77;;;;;;;7.89;100.00;102294.72;2080342;28;20291;-79
2023/02/10 05:33:42;;;;;;;29.80;19.02;;;;;;;7.93;100.00;102296.69;2081882;28;20079;-81
2023/02/10 05:35:05;;;;;;;25.88;18.38;;;;;;;7.97;100.00;102297.75;2085408;28;20434;-82
2023/02/10 05:36:28;;;;;;;26.48;18.25;;;;;;;8.02;100.00;102291.88;2082928;28;20496;-82
2023/02/10 05:37:51;;;;;;;20.60;11.10;;;;;;;8.08;100.00;102293.91;2085191;28;20049;-81
2023/02/10 05:39:24;;;;;;;9.95;6.32;;;;;;;8.12;100.00;102295.88;2094626;28;20040;-82
2023/02/10 05:40:47;;;;;;;8.65;5.38;;;;;;;8.13;100.00;102300.34;2095237;28;20055;-81
2023/02/10 05:42:09;;;;;;;21.13;13.32;;;;;;;8.16;100.00;102303.09;2087421;28;20033;-82
2023/02/10 05:43:32;;;;;;;23.35;16.00;;;;;;;8.16;100.00;102303.09;2085091;28;20056;-81
2023/02/10 05:44:54;;;;;;;15.70;10.55;;;;;;;8.18;100.00;102300.56;2084853;28;20037;-80
2023/02/10 05:46:15;;;;;;;14.30;8.88;;;;;;;8.19;100.00;102303.25;2085838;28;20075;-81
2023/02/10 05:47:38;;;;;;;12.52;7.95;;;;;;;8.18;100.00;102304.09;2084025;28;20127;-82
2023/02/10 05:49:00;;;;;;;16.33;11.75;;;;;;;8.18;100.00;102303.19;2089103;28;20554;-81
2023/02/10 05:50:22;;;;;;;24.15;15.40;;;;;;;8.17;100.00;102297.00;2084453;28;20048;-82
2023/02/10 05:51:47;;;;;;;15.35;10.23;;;;;;;8.17;100.00;102306.63;2085694;28;20079;-82
2023/02/10 05:53:09;;;;;;;20.25;11.95;;;;;;;8.17;100.00;102304.00;2085464;28;20068;-83
2023/02/10 05:54:32;;;;;;;21.25;14.10;;;;;;;8.16;100.00;102308.34;2101052;28;20040;-81
2023/02/10 05:55:54;;;;;;;25.40;15.63;;;;;;;8.19;100.00;102300.63;2090949;28;20053;-81
2023/02/10 05:57:16;;;;;;;20.52;13.40;;;;;;;8.22;100.00;102303.41;2084845;28;20838;-80
2023/02/10 05:58:39;;;;;;;19.63;13.13;;;;;;;8.27;100.00;102303.66;2088523;28;20374;-81
2023/02/10 06:00:01;;;;;;;15.15;9.65;;;;;;;8.31;100.00;102300.38;2092173;28;20052;-82
2023/02/10 06:01:34;;;;;;;14.50;8.38;;;;;;;8.35;100.00;102307.56;2099717;28;20052;-82
2023/02/10 06:02:57;;;;;;;10.40;6.60;;;;;;;8.38;100.00;102302.47;2090778;28;20440;-82
2023/02/10 06:04:19;;;;;;;11.65;6.72;;;;;;;8.40;100.00;102306.97;2094348;28;20559;-82
2023/02/10 06:05:43;;;;;;;10.73;6.85;;;;;;;8.40;100.00;102306.09;2087385;28;20060;-82
2023/02/10 06:07:07;;;;;;;16.80;11.05;;;;;;;8.40;100.00;102306.97;2086178;28;20053;-81
2023/02/10 06:08:29;;;;;;;21.02;14.32;;;;;;;8.42;100.00;102307.03;2086332;28;20039;-82
2023/02/10 06:09:52;;;;;;;20.10;14.57;;;;;;;8.44;100.00;102305.41;2093727;28;20063;-82
2023/02/10 06:11:13;;;;;;;20.63;15.02;;;;;;;8.48;100.00;102303.81;2088560;28;20041;-81
2023/02/10 06:12:36;;;;;;;23.77;18.13;;;;;;;8.52;100.00;102301.44;2077932;28;20049;-82
2023/02/10 06:13:59;;;;;;;15.52;10.85;;;;;;;8.59;100.00;102307.88;2084260;28;20049;-82
2023/02/10 06:15:23;;;;;;;13.65;9.15;;;;;;;8.61;100.00;102307.13;2082405;28;20044;-82
2023/02/10 06:16:47;;;;;;;11.13;7.30;;;;;;;8.62;100.00;102308.91;2066812;28;20591;-82
2023/02/10 06:18:11;;;;;;;10.93;7.00;;;;;;;8.63;100.00;102316.00;2090103;28;20071;-82
2023/02/10 06:19:33;;;;;;;13.10;8.05;;;;;;;8.61;100.00;102312.38;2074648;28;20052;-82
2023/02/10 06:20:58;;;;;;;15.60;10.02;;;;;;;8.63;100.00;102315.09;2083804;28;20055;-81
2023/02/10 06:22:22;;;;;;;14.68;9.80;;;;;;;8.62;100.00;102310.66;2094374;28;20489;-81
2023/02/10 06:23:45;;;;;;;21.45;12.95;;;;;;;8.59;100.00;102314.06;2088428;28;20382;-81
2023/02/10 06:25:11;;;;;;;16.48;9.95;;;;;;;8.61;100.00;102316.72;2088239;28;20520;-82
2023/02/10 06:26:36;;;;;;;22.83;14.05;;;;;;;8.64;100.00;102309.91;2094414;28;20055;-82
2023/02/10 06:27:59;;;;;;;22.75;14.40;;;;;;;8.70;100.00;102318.09;2082637;28;20112;-82
2023/02/10 06:29:24;;;;;;;24.73;13.15;;;;;;;8.74;100.00;102314.78;2094552;28;20040;-82
2023/02/10 06:30:48;;;;;;;20.30;12.43;;;;;;;8.76;100.00;102309.59;2082515;28;20406;-83
2023/02/10 06:32:11;;;;;;;25.45;16.52;;;;;;;8.80;100.00;102307.16;2080944;28;20041;-83
2023/02/10 06:33:34;;;;;;;22.55;13.63;;;;;;;8.85;100.00;102317.03;2102933;28;20055;-82